createdAt,value
2023-05-04T00:00:28.162Z,24.44
2023-05-04T00:01:28.177Z,24.44
2023-05-04T00:02:28.347Z,24.44
2023-05-04T00:03:28.384Z,24.43
2023-05-04T00:04:28.308Z,24.44
2023-05-04T00:05:28.321Z,24.43
2023-05-04T00:06:28.310Z,24.44
2023-05-04T00:07:28.338Z,24.44
2023-05-04T00:08:28.382Z,24.43
2023-05-04T00:09:28.418Z,24.43
2023-05-04T00:10:28.420Z,24.44
2023-05-04T00:11:28.429Z,24.43
2023-05-04T00:12:28.573Z,24.43
2023-05-04T00:13:28.524Z,24.42
2023-05-04T00:14:28.574Z,24.43
2023-05-04T00:15:28.539Z,24.43
2023-05-04T00:16:28.623Z,24.42
2023-05-04T00:17:28.587Z,24.43
2023-05-04T00:18:28.596Z,24.42
2023-05-04T00:19:28.621Z,24.42
2023-05-04T00:20:28.642Z,24.42
2023-05-04T00:21:28.704Z,24.42
2023-05-04T00:22:28.730Z,24.42
2023-05-04T00:23:28.747Z,24.41
2023-05-04T00:24:28.762Z,24.41
2023-05-04T00:25:28.747Z,24.41
2023-05-04T00:26:28.810Z,24.41
2023-05-04T00:27:28.833Z,24.41
2023-05-04T00:28:28.881Z,24.41
2023-05-04T00:29:28.883Z,24.41
2023-05-04T00:30:28.917Z,24.41
2023-05-04T00:31:29.738Z,24.40
2023-05-04T00:32:28.951Z,24.40
2023-05-04T00:33:28.988Z,24.40
2023-05-04T00:34:29.022Z,24.40
2023-05-04T00:35:29.021Z,24.40
2023-05-04T00:36:29.099Z,24.40
2023-05-04T00:37:29.107Z,24.40
2023-05-04T00:38:29.145Z,24.40
2023-05-04T00:39:29.127Z,24.40
2023-05-04T00:40:29.183Z,24.39
2023-05-04T00:41:29.239Z,24.40
2023-05-04T00:42:29.265Z,24.39
2023-05-04T00:43:29.289Z,24.39
2023-05-04T00:44:29.298Z,24.40
2023-05-04T00:45:29.369Z,24.39
2023-05-04T00:46:29.423Z,24.39
2023-05-04T00:47:29.474Z,24.39
2023-05-04T00:48:29.417Z,24.39
2023-05-04T00:49:29.436Z,24.38
2023-05-04T00:50:29.441Z,24.38
2023-05-04T00:51:29.496Z,24.37
2023-05-04T00:52:29.521Z,24.37
2023-05-04T00:53:29.570Z,24.38
2023-05-04T00:54:29.596Z,24.37
2023-05-04T00:55:29.637Z,24.37
2023-05-04T00:56:29.648Z,24.37
2023-05-04T00:57:29.685Z,24.38
2023-05-04T00:58:29.685Z,24.37
2023-05-04T00:59:29.695Z,24.37
2023-05-04T01:00:29.753Z,24.37
2023-05-04T01:01:30.066Z,24.37
2023-05-04T01:02:29.934Z,24.37
2023-05-04T01:03:29.918Z,24.37
2023-05-04T01:04:29.889Z,24.36
2023-05-04T01:05:29.921Z,24.37
2023-05-04T01:06:29.932Z,24.36
2023-05-04T01:07:29.927Z,24.35
2023-05-04T01:08:30.004Z,24.36
2023-05-04T01:09:30.038Z,24.36
2023-05-04T01:10:30.003Z,24.35
2023-05-04T01:11:30.087Z,24.36
2023-05-04T01:12:30.138Z,24.35
2023-05-04T01:13:30.132Z,24.35
2023-05-04T01:14:30.185Z,24.36
2023-05-04T01:15:30.198Z,24.35
2023-05-04T01:16:30.264Z,24.35
2023-05-04T01:17:30.278Z,24.35
2023-05-04T01:18:30.271Z,24.35
2023-05-04T01:19:30.322Z,24.35
2023-05-04T01:20:30.346Z,24.35
2023-05-04T01:21:30.393Z,24.35
2023-05-04T01:22:30.405Z,24.35
2023-05-04T01:23:30.416Z,24.34
2023-05-04T01:24:30.496Z,24.35
2023-05-04T01:25:30.511Z,24.34
2023-05-04T01:26:30.496Z,24.34
2023-05-04T01:27:30.529Z,24.34
2023-05-04T01:28:30.588Z,24.34
2023-05-04T01:29:30.632Z,24.34
2023-05-04T01:30:30.699Z,24.33
2023-05-04T01:31:30.807Z,24.34
2023-05-04T01:32:30.784Z,24.33
2023-05-04T01:33:30.771Z,24.33
2023-05-04T01:34:30.832Z,24.34
2023-05-04T01:35:30.839Z,24.33
2023-05-04T01:36:30.915Z,24.33
2023-05-04T01:37:30.906Z,24.32
2023-05-04T01:38:30.918Z,24.32
2023-05-04T01:39:30.965Z,24.33
2023-05-04T01:40:31.030Z,24.32
2023-05-04T01:41:31.050Z,24.33
2023-05-04T01:42:31.641Z,24.32
2023-05-04T01:43:31.135Z,24.32
2023-05-04T01:44:31.168Z,24.33
2023-05-04T01:45:31.212Z,24.33
2023-05-04T01:46:31.269Z,24.32
2023-05-04T01:47:31.241Z,24.32
2023-05-04T01:48:31.280Z,24.32
2023-05-04T01:49:31.370Z,24.32
2023-05-04T01:50:31.393Z,24.32
2023-05-04T01:51:31.389Z,24.31
2023-05-04T01:52:31.434Z,24.31
2023-05-04T01:53:31.440Z,24.31
2023-05-04T01:54:31.474Z,24.31
2023-05-04T01:55:31.526Z,24.31
2023-05-04T01:56:31.544Z,24.31
2023-05-04T01:57:31.541Z,24.31
2023-05-04T01:58:31.608Z,24.31
2023-05-04T01:59:31.611Z,24.30
2023-05-04T02:00:31.726Z,24.30
2023-05-04T02:02:31.780Z,24.30
2023-05-04T02:03:31.870Z,24.30
2023-05-04T02:04:31.843Z,24.30
2023-05-04T02:05:31.907Z,24.30
2023-05-04T02:06:31.905Z,24.30
2023-05-04T02:07:32.013Z,24.30
2023-05-04T02:08:31.987Z,24.30
2023-05-04T02:09:32.029Z,24.29
2023-05-04T02:10:32.016Z,24.29
2023-05-04T02:11:32.106Z,24.30
2023-05-04T02:12:32.175Z,24.29
2023-05-04T02:13:32.166Z,24.30
2023-05-04T02:14:32.200Z,24.30
2023-05-04T02:15:32.237Z,24.29
2023-05-04T02:16:32.378Z,24.29
2023-05-04T02:17:32.348Z,24.29
2023-05-04T02:18:32.369Z,24.29
2023-05-04T02:19:32.364Z,24.29
2023-05-04T02:20:32.395Z,24.29
2023-05-04T02:21:32.413Z,24.28
2023-05-04T02:22:32.501Z,24.29
2023-05-04T02:23:32.514Z,24.29
2023-05-04T02:24:32.505Z,24.29
2023-05-04T02:25:32.613Z,24.28
2023-05-04T02:26:32.648Z,24.28
2023-05-04T02:27:32.628Z,24.28
2023-05-04T02:28:32.663Z,24.28
2023-05-04T02:29:32.668Z,24.28
2023-05-04T02:30:32.712Z,24.28
2023-05-04T02:31:32.833Z,24.28
2023-05-04T02:32:32.795Z,24.28
2023-05-04T02:33:32.808Z,24.27
2023-05-04T02:34:32.840Z,24.27
2023-05-04T02:35:32.846Z,24.27
2023-05-04T02:36:32.959Z,24.27
2023-05-04T02:37:32.977Z,24.27
2023-05-04T02:38:33.009Z,24.27
2023-05-04T02:39:33.025Z,24.27
2023-05-04T02:40:33.023Z,24.27
2023-05-04T02:41:33.089Z,24.27
2023-05-04T02:42:33.094Z,24.27
2023-05-04T02:43:33.151Z,24.27
2023-05-04T02:44:33.173Z,24.26
2023-05-04T02:45:33.285Z,24.26
2023-05-04T02:46:33.303Z,24.27
2023-05-04T02:47:33.350Z,24.26
2023-05-04T02:48:33.318Z,24.27
2023-05-04T02:49:33.418Z,24.26
2023-05-04T02:50:33.423Z,24.26
2023-05-04T02:51:33.487Z,24.27
2023-05-04T02:52:33.473Z,24.26
2023-05-04T02:53:33.492Z,24.26
2023-05-04T02:54:33.575Z,24.26
2023-05-04T02:55:33.613Z,24.26
2023-05-04T02:56:33.613Z,24.26
2023-05-04T02:57:33.611Z,24.26
2023-05-04T02:58:33.709Z,24.25
2023-05-04T02:59:33.727Z,24.25
2023-05-04T03:00:33.773Z,24.26
2023-05-04T03:01:35.015Z,24.25
2023-05-04T03:02:33.908Z,24.25
2023-05-04T03:03:33.859Z,24.25
2023-05-04T03:04:34.003Z,24.25
2023-05-04T03:05:33.933Z,24.26
2023-05-04T03:06:34.022Z,24.25
2023-05-04T03:07:33.987Z,24.24
2023-05-04T03:08:34.052Z,24.25
2023-05-04T03:09:34.076Z,24.25
2023-05-04T03:10:34.272Z,24.25
2023-05-04T03:11:34.204Z,24.24
2023-05-04T03:12:34.244Z,24.23
2023-05-04T03:13:35.234Z,24.24
2023-05-04T03:14:34.328Z,24.25
2023-05-04T03:15:34.336Z,24.24
2023-05-04T03:16:34.399Z,24.24
2023-05-04T03:17:34.407Z,24.24
2023-05-04T03:19:53.116Z,24.20
2023-05-04T03:20:53.190Z,24.22
2023-05-04T03:21:53.135Z,24.22
2023-05-04T03:22:53.144Z,24.22
2023-05-04T03:23:53.116Z,24.23
2023-05-04T03:24:53.132Z,24.23
2023-05-04T03:25:53.105Z,24.23
2023-05-04T03:26:53.095Z,24.23
2023-05-04T03:27:53.102Z,24.23
2023-05-04T03:28:53.947Z,24.23
2023-05-04T03:29:53.061Z,24.23
2023-05-04T03:30:53.083Z,24.23
2023-05-04T03:31:53.089Z,24.22
2023-05-04T03:32:53.059Z,24.22
2023-05-04T03:33:53.061Z,24.23
2023-05-04T03:34:53.027Z,24.23
2023-05-04T03:35:53.034Z,24.23
2023-05-04T03:36:53.021Z,24.23
2023-05-04T03:37:53.019Z,24.23
2023-05-04T03:38:52.999Z,24.23
2023-05-04T03:39:53.011Z,24.23
2023-05-04T03:40:53.007Z,24.23
2023-05-04T03:41:53.021Z,24.22
2023-05-04T03:42:53.012Z,24.23
2023-05-04T03:43:52.988Z,24.22
2023-05-04T03:44:52.933Z,24.23
2023-05-04T03:45:52.991Z,24.22
2023-05-04T03:46:52.952Z,24.22
2023-05-04T03:47:52.974Z,24.22
2023-05-04T03:48:52.957Z,24.22
2023-05-04T03:49:52.921Z,24.22
2023-05-04T03:50:52.908Z,24.23
2023-05-04T03:51:52.924Z,24.21
2023-05-04T03:52:52.901Z,24.21
2023-05-04T03:53:52.921Z,24.22
2023-05-04T03:54:52.899Z,24.22
2023-05-04T03:55:52.910Z,24.21
2023-05-04T03:56:52.902Z,24.21
2023-05-04T03:57:52.898Z,24.21
2023-05-04T03:58:52.870Z,24.21
2023-05-04T03:59:52.843Z,24.21
2023-05-04T04:00:52.833Z,24.21
2023-05-04T04:01:52.816Z,24.20
2023-05-04T04:02:52.923Z,24.21
2023-05-04T04:03:53.001Z,24.20
2023-05-04T04:04:52.967Z,24.21
2023-05-04T04:05:52.943Z,24.20
2023-05-04T04:06:52.988Z,24.20
2023-05-04T04:07:53.093Z,24.19
2023-05-04T04:08:53.098Z,24.19
2023-05-04T04:09:53.219Z,24.18
2023-05-04T04:10:53.167Z,24.17
2023-05-04T04:11:53.213Z,24.16
2023-05-04T04:12:53.302Z,24.16
2023-05-04T04:13:53.286Z,24.14
2023-05-04T04:14:53.342Z,24.14
2023-05-04T04:15:53.410Z,24.15
2023-05-04T04:16:53.519Z,24.14
2023-05-04T04:17:53.506Z,24.14
2023-05-04T04:18:53.529Z,24.13
2023-05-04T04:19:53.552Z,24.12
2023-05-04T04:20:53.605Z,24.11
2023-05-04T04:21:53.610Z,24.11
2023-05-04T04:22:53.746Z,24.11
2023-05-04T04:23:53.698Z,24.11
2023-05-04T04:24:53.774Z,24.10
2023-05-04T04:25:53.770Z,24.10
2023-05-04T04:26:53.840Z,24.11
2023-05-04T04:27:53.894Z,24.11
2023-05-04T04:28:53.926Z,24.10
2023-05-04T04:29:53.956Z,24.11
2023-05-04T04:30:54.014Z,24.10
2023-05-04T04:31:54.048Z,24.10
2023-05-04T04:32:54.151Z,24.10
2023-05-04T04:33:54.109Z,24.08
2023-05-04T04:34:54.146Z,24.08
2023-05-04T04:35:54.134Z,24.08
2023-05-04T04:36:54.225Z,24.07
2023-05-04T04:37:54.231Z,24.07
2023-05-04T04:38:54.381Z,24.06
2023-05-04T04:39:54.334Z,24.06
2023-05-04T04:40:54.380Z,24.06
2023-05-04T04:41:54.881Z,24.06
2023-05-04T04:42:54.491Z,24.07
2023-05-04T04:43:54.551Z,24.06
2023-05-04T04:44:54.649Z,24.06
2023-05-04T04:45:54.521Z,24.07
2023-05-04T04:46:54.717Z,24.07
2023-05-04T04:47:54.677Z,24.06
2023-05-04T04:48:54.701Z,24.06
2023-05-04T04:49:54.723Z,24.06
2023-05-04T04:50:54.743Z,24.06
2023-05-04T04:51:54.811Z,24.06
2023-05-04T04:52:54.842Z,24.06
2023-05-04T04:53:54.878Z,24.06
2023-05-04T04:54:54.931Z,24.06
2023-05-04T04:55:54.942Z,24.05
2023-05-04T04:56:54.977Z,24.06
2023-05-04T04:57:55.874Z,24.06
2023-05-04T04:58:55.176Z,24.06
2023-05-04T04:59:55.062Z,24.06
2023-05-04T05:00:55.165Z,24.05
2023-05-04T05:01:55.126Z,24.05
2023-05-04T05:02:55.233Z,24.06
2023-05-04T05:03:55.254Z,24.05
2023-05-04T05:04:55.350Z,24.05
2023-05-04T05:05:55.325Z,24.04
2023-05-04T05:06:55.373Z,24.02
2023-05-04T05:07:55.440Z,24.01
2023-05-04T05:08:55.485Z,24.00
2023-05-04T05:09:55.459Z,24.00
2023-05-04T05:10:55.484Z,24.00
2023-05-04T05:11:55.501Z,23.98
2023-05-04T05:12:55.646Z,23.98
2023-05-04T05:13:55.571Z,23.98
2023-05-04T05:14:55.586Z,23.98
2023-05-04T05:15:55.591Z,23.98
2023-05-04T05:16:55.662Z,23.98
2023-05-04T05:17:55.831Z,23.98
2023-05-04T05:18:55.650Z,23.96
2023-05-04T05:19:56.440Z,23.96
2023-05-04T05:20:55.721Z,23.95
2023-05-04T05:21:55.778Z,23.94
2023-05-04T05:22:56.400Z,23.94
2023-05-04T05:23:55.745Z,23.93
2023-05-04T05:24:55.761Z,23.96
2023-05-04T05:25:55.875Z,23.96
2023-05-04T05:26:55.810Z,23.95
2023-05-04T05:27:55.898Z,23.97
2023-05-04T05:28:55.832Z,23.98
2023-05-04T05:29:55.896Z,23.99
2023-05-04T05:30:55.940Z,23.98
2023-05-04T05:31:55.933Z,23.98
2023-05-04T05:32:55.979Z,23.97
2023-05-04T05:33:56.048Z,23.99
2023-05-04T05:34:56.032Z,24.00
2023-05-04T05:35:56.075Z,24.02
2023-05-04T05:36:56.131Z,24.02
2023-05-04T05:37:56.389Z,24.01
2023-05-04T05:38:56.163Z,24.02
2023-05-04T05:39:56.180Z,24.02
2023-05-04T05:40:56.182Z,24.02
2023-05-04T05:41:56.289Z,24.02
2023-05-04T05:42:56.297Z,24.03
2023-05-04T05:43:56.278Z,24.04
2023-05-04T05:44:57.317Z,24.04
2023-05-04T05:45:56.350Z,24.05
2023-05-04T05:46:56.368Z,24.06
2023-05-04T05:47:56.391Z,24.08
2023-05-04T05:48:56.369Z,24.08
2023-05-04T05:49:56.453Z,24.07
2023-05-04T05:50:56.452Z,24.09
2023-05-04T05:51:56.467Z,24.10
2023-05-04T05:52:56.480Z,24.10
2023-05-04T05:53:56.499Z,24.11
2023-05-04T05:54:56.525Z,24.11
2023-05-04T05:55:56.540Z,24.11
2023-05-04T05:56:56.533Z,24.12
2023-05-04T05:57:56.591Z,24.12
2023-05-04T05:58:56.718Z,24.13
2023-05-04T05:59:56.638Z,24.13
2023-05-04T06:00:56.683Z,24.12
2023-05-04T06:01:56.656Z,24.12
2023-05-04T06:02:56.778Z,24.12
2023-05-04T06:03:56.911Z,24.12
2023-05-04T06:04:56.920Z,24.11
2023-05-04T06:05:56.752Z,24.12
2023-05-04T06:06:56.886Z,24.13
2023-05-04T06:07:56.920Z,24.15
2023-05-04T06:08:56.893Z,24.15
2023-05-04T06:09:56.978Z,24.15
2023-05-04T06:10:56.894Z,24.16
2023-05-04T06:11:57.018Z,24.17
2023-05-04T06:12:57.073Z,24.18
2023-05-04T06:13:57.464Z,24.19
2023-05-04T06:14:57.059Z,24.19
2023-05-04T06:15:57.108Z,24.20
2023-05-04T06:16:57.581Z,24.21
2023-05-04T06:17:57.181Z,24.22
2023-05-04T06:18:57.255Z,24.23
2023-05-04T06:19:57.309Z,24.24
2023-05-04T06:20:57.301Z,24.25
2023-05-04T06:21:57.374Z,24.25
2023-05-04T06:22:57.376Z,24.26
2023-05-04T06:23:57.427Z,24.27
2023-05-04T06:25:02.793Z,24.27
2023-05-04T06:25:58.455Z,24.28
2023-05-04T06:26:57.442Z,24.29
2023-05-04T06:27:57.442Z,24.29
2023-05-04T06:28:57.456Z,24.29
2023-05-04T06:29:57.421Z,24.29
2023-05-04T06:30:57.443Z,24.28
2023-05-04T06:31:57.470Z,24.28
2023-05-04T06:32:57.502Z,24.27
2023-05-04T06:33:57.395Z,24.27
2023-05-04T06:34:57.432Z,24.27
2023-05-04T06:35:57.408Z,24.27
2023-05-04T06:36:57.412Z,24.25
2023-05-04T06:37:57.467Z,24.25
2023-05-04T06:38:57.498Z,24.22
2023-05-04T06:39:57.493Z,24.19
2023-05-04T06:40:57.609Z,24.15
2023-05-04T06:41:57.592Z,24.14
2023-05-04T06:42:57.615Z,24.12
2023-05-04T06:43:58.866Z,24.14
2023-05-04T06:44:57.671Z,24.14
2023-05-04T06:45:57.715Z,24.16
2023-05-04T06:47:01.836Z,24.18
2023-05-04T06:47:57.676Z,24.20
2023-05-04T06:48:58.327Z,24.22
2023-05-04T06:49:57.662Z,24.22
2023-05-04T06:50:57.628Z,24.24
2023-05-04T06:51:57.669Z,24.24
2023-05-04T06:52:57.691Z,24.27
2023-05-04T06:53:57.927Z,24.28
2023-05-04T06:54:57.642Z,24.30
2023-05-04T06:55:57.951Z,24.32
2023-05-04T06:56:57.619Z,24.33
2023-05-04T06:57:57.654Z,24.35
2023-05-04T06:58:57.611Z,24.36
2023-05-04T06:59:57.955Z,24.34
2023-05-04T07:00:57.703Z,24.35
2023-05-04T07:01:57.587Z,24.37
2023-05-04T07:02:57.618Z,24.40
2023-05-04T07:03:57.604Z,24.41
2023-05-04T07:04:57.967Z,24.39
2023-05-04T07:05:57.565Z,24.42
2023-05-04T07:06:57.583Z,24.44
2023-05-04T07:07:57.584Z,24.46
2023-05-04T07:08:57.550Z,24.47
2023-05-04T07:09:57.526Z,24.48
2023-05-04T07:10:57.494Z,24.49
2023-05-04T07:11:57.508Z,24.51
2023-05-04T07:12:57.594Z,24.50
2023-05-04T07:13:57.517Z,24.48
2023-05-04T07:14:57.956Z,24.49
2023-05-04T07:15:57.533Z,24.51
2023-05-04T07:16:57.475Z,24.52
2023-05-04T07:17:58.507Z,24.53
2023-05-04T07:18:57.567Z,24.53
2023-05-04T07:19:57.683Z,24.54
2023-05-04T07:21:10.800Z,24.53
2023-05-04T07:21:58.603Z,24.53
2023-05-04T07:22:57.702Z,24.54
2023-05-04T07:23:58.325Z,24.55
2023-05-04T07:24:58.328Z,24.56
2023-05-04T07:25:57.718Z,24.57
2023-05-04T07:26:57.552Z,24.57
2023-05-04T07:27:57.618Z,24.57
2023-05-04T07:28:57.618Z,24.57
2023-05-04T07:29:57.641Z,24.59
2023-05-04T07:30:57.584Z,24.62
2023-05-04T07:31:57.555Z,24.63
2023-05-04T07:32:57.607Z,24.63
2023-05-04T07:33:57.507Z,24.63
2023-05-04T07:34:57.510Z,24.63
2023-05-04T07:35:57.518Z,24.64
2023-05-04T07:36:57.528Z,24.63
2023-05-04T07:37:57.509Z,24.62
2023-05-04T07:38:59.273Z,24.60
2023-05-04T07:39:57.604Z,24.61
2023-05-04T07:40:57.634Z,24.58
2023-05-04T07:41:57.757Z,24.55
2023-05-04T07:42:57.723Z,24.56
2023-05-04T07:43:57.992Z,24.57
2023-05-04T07:44:57.845Z,24.57
2023-05-04T07:45:57.804Z,24.58
2023-05-04T07:46:57.991Z,24.59
2023-05-04T07:47:57.899Z,24.60
2023-05-04T07:48:57.858Z,24.59
2023-05-04T07:49:57.974Z,24.60
2023-05-04T07:50:58.004Z,24.61
2023-05-04T07:51:57.989Z,24.60
2023-05-04T07:52:58.102Z,24.61
2023-05-04T07:53:58.052Z,24.61
2023-05-04T07:54:58.074Z,24.62
2023-05-04T07:55:58.098Z,24.62
2023-05-04T07:56:58.128Z,24.61
2023-05-04T07:57:58.547Z,24.61
2023-05-04T07:58:58.143Z,24.62
2023-05-04T07:59:58.179Z,24.61
2023-05-04T08:00:58.269Z,24.61
2023-05-04T08:01:58.279Z,24.62
2023-05-04T08:02:58.568Z,24.62
2023-05-04T08:03:58.282Z,24.63
2023-05-04T08:04:58.376Z,24.62
2023-05-04T08:05:58.455Z,24.62
2023-05-04T08:06:58.508Z,24.63
2023-05-04T08:07:58.407Z,24.63
2023-05-04T08:08:58.451Z,24.63
2023-05-04T08:09:58.630Z,24.64
2023-05-04T08:11:11.720Z,24.63
2023-05-04T08:11:59.493Z,24.62
2023-05-04T08:12:58.532Z,24.62
2023-05-04T08:13:58.484Z,24.62
2023-05-04T08:14:58.450Z,24.63
2023-05-04T08:15:58.506Z,24.64
2023-05-04T08:16:58.475Z,24.65
2023-05-04T08:17:58.522Z,24.66
2023-05-04T08:18:58.477Z,24.66
2023-05-04T08:19:58.443Z,24.66
2023-05-04T08:20:58.443Z,24.66
2023-05-04T08:21:58.397Z,24.63
2023-05-04T08:22:58.414Z,24.63
2023-05-04T08:23:58.369Z,24.60
2023-05-04T08:24:58.417Z,24.60
2023-05-04T08:25:58.456Z,24.61
2023-05-04T08:27:07.021Z,24.60
2023-05-04T08:27:59.461Z,24.60
2023-05-04T08:28:58.426Z,24.60
2023-05-04T08:29:58.393Z,24.61
2023-05-04T08:30:58.432Z,24.62
2023-05-04T08:31:58.481Z,24.62
2023-05-04T08:32:58.479Z,24.63
2023-05-04T08:33:58.378Z,24.64
2023-05-04T08:34:58.390Z,24.64
2023-05-04T08:35:58.404Z,24.66
2023-05-04T08:36:58.352Z,24.67
2023-05-04T08:37:58.364Z,24.69
2023-05-04T08:38:58.385Z,24.70
2023-05-04T08:39:58.329Z,24.71
2023-05-04T08:40:58.321Z,24.72
2023-05-04T08:41:58.389Z,24.71
2023-05-04T08:42:58.379Z,24.71
2023-05-04T08:43:58.379Z,24.71
2023-05-04T08:44:59.540Z,24.72
2023-05-04T08:45:58.729Z,24.73
2023-05-04T08:46:58.577Z,24.72
2023-05-04T08:47:58.710Z,24.71
2023-05-04T08:48:58.703Z,24.70
2023-05-04T08:49:58.668Z,24.71
2023-05-04T08:50:58.734Z,24.72
2023-05-04T08:51:58.743Z,24.72
2023-05-04T08:52:58.797Z,24.73
2023-05-04T08:53:58.821Z,24.75
2023-05-04T08:54:58.763Z,24.74
2023-05-04T08:55:58.767Z,24.73
2023-05-04T08:56:58.876Z,24.75
2023-05-04T08:57:58.927Z,24.74
2023-05-04T08:58:58.928Z,24.76
2023-05-04T08:59:58.967Z,24.76
2023-05-04T09:00:58.953Z,24.77
2023-05-04T09:01:59.031Z,24.77
2023-05-04T09:02:59.044Z,24.78
2023-05-04T09:04:00.061Z,24.78
2023-05-04T09:04:59.036Z,24.78
2023-05-04T09:06:00.143Z,24.79
2023-05-04T09:06:59.131Z,24.79
2023-05-04T09:07:59.157Z,24.80
2023-05-04T09:08:59.190Z,24.79
2023-05-04T09:09:59.178Z,24.79
2023-05-04T09:10:59.350Z,24.79
2023-05-04T09:11:59.258Z,24.79
2023-05-04T09:12:59.274Z,24.79
2023-05-04T09:13:59.277Z,24.80
2023-05-04T09:14:59.386Z,24.79
2023-05-04T09:15:59.290Z,24.79
2023-05-04T09:16:59.427Z,24.78
2023-05-04T09:17:59.459Z,24.78
2023-05-04T09:18:59.469Z,24.78
2023-05-04T09:19:59.483Z,24.78
2023-05-04T09:20:59.461Z,24.78
2023-05-04T09:21:59.494Z,24.78
2023-05-04T09:22:59.561Z,24.79
2023-05-04T09:23:59.550Z,24.78
2023-05-04T09:24:59.578Z,24.79
2023-05-04T09:25:59.638Z,24.79
2023-05-04T09:26:59.588Z,24.74
2023-05-04T09:27:59.580Z,24.75
2023-05-04T09:28:59.640Z,24.76
2023-05-04T09:29:59.628Z,24.75
2023-05-04T09:31:00.601Z,24.76
2023-05-04T09:31:59.684Z,24.77
2023-05-04T09:32:59.733Z,24.74
2023-05-04T09:34:00.554Z,24.76
2023-05-04T09:34:59.835Z,24.78
2023-05-04T09:35:59.779Z,24.77
2023-05-04T09:37:00.168Z,24.74
2023-05-04T09:38:00.015Z,24.76
2023-05-04T09:39:00.850Z,24.77
2023-05-04T09:40:00.071Z,24.76
2023-05-04T09:40:59.879Z,24.76
2023-05-04T09:41:59.994Z,24.75
2023-05-04T09:42:59.790Z,24.77
2023-05-04T09:43:59.805Z,24.79
2023-05-04T09:44:59.885Z,24.81
2023-05-04T09:45:59.822Z,24.82
2023-05-04T09:46:59.747Z,24.84
2023-05-04T09:47:59.880Z,24.84
2023-05-04T09:48:59.762Z,24.84
2023-05-04T09:49:59.850Z,24.85
2023-05-04T09:50:59.853Z,24.85
2023-05-04T09:51:59.885Z,24.86
2023-05-04T09:52:59.914Z,24.86
2023-05-04T09:53:59.957Z,24.87
2023-05-04T09:55:00.041Z,24.86
2023-05-04T09:56:02.526Z,24.86
2023-05-04T09:56:59.984Z,24.86
2023-05-04T09:57:59.992Z,24.87
2023-05-04T09:58:59.954Z,24.87
2023-05-04T10:00:00.019Z,24.87
2023-05-04T10:00:59.964Z,24.87
2023-05-04T10:02:04.813Z,24.87
2023-05-04T10:03:00.987Z,24.87
2023-05-04T10:03:59.977Z,24.87
2023-05-04T10:04:59.936Z,24.87
2023-05-04T10:06:00.037Z,24.87
2023-05-04T10:06:59.959Z,24.87
2023-05-04T10:07:59.893Z,24.87
2023-05-04T10:09:00.068Z,24.87
2023-05-04T10:09:59.972Z,24.86
2023-05-04T10:10:59.882Z,24.87
2023-05-04T10:12:00.562Z,24.86
2023-05-04T10:13:00.680Z,24.86
2023-05-04T10:13:59.895Z,24.86
2023-05-04T10:14:59.917Z,24.86
2023-05-04T10:15:59.875Z,24.86
2023-05-04T10:16:59.857Z,24.86
2023-05-04T10:17:59.844Z,24.86
2023-05-04T10:18:59.932Z,24.85
2023-05-04T10:19:59.945Z,24.87
2023-05-04T10:20:59.976Z,24.86
2023-05-04T10:22:00.013Z,24.87
2023-05-04T10:22:59.959Z,24.87
2023-05-04T10:24:00.109Z,24.86
2023-05-04T10:25:00.151Z,24.87
2023-05-04T10:26:00.097Z,24.86
2023-05-04T10:27:01.016Z,24.83
2023-05-04T10:28:00.142Z,24.81
2023-05-04T10:29:00.161Z,24.82
2023-05-04T10:30:00.212Z,24.83
2023-05-04T10:31:00.212Z,24.83
2023-05-04T10:32:00.302Z,24.84
2023-05-04T10:33:00.407Z,24.83
2023-05-04T10:34:00.318Z,24.84
2023-05-04T10:35:00.364Z,24.85
2023-05-04T10:36:00.351Z,24.85
2023-05-04T10:37:00.469Z,24.85
2023-05-04T10:38:00.429Z,24.82
2023-05-04T10:39:00.469Z,24.81
2023-05-04T10:40:00.494Z,24.81
2023-05-04T10:41:00.545Z,24.83
2023-05-04T10:42:00.556Z,24.84
2023-05-04T10:43:00.659Z,24.85
2023-05-04T10:44:00.624Z,24.86
2023-05-04T10:45:00.660Z,24.87
2023-05-04T10:46:00.730Z,24.85
2023-05-04T10:47:00.730Z,24.86
2023-05-04T10:48:01.147Z,24.86
2023-05-04T10:49:00.779Z,24.87
2023-05-04T10:50:01.525Z,24.85
2023-05-04T10:51:00.880Z,24.86
2023-05-04T10:52:00.849Z,24.85
2023-05-04T10:53:00.922Z,24.86
2023-05-04T10:54:00.924Z,24.87
2023-05-04T10:55:00.941Z,24.88
2023-05-04T10:56:00.944Z,24.89
2023-05-04T10:57:01.008Z,24.88
2023-05-04T10:58:01.042Z,24.90
2023-05-04T10:59:01.083Z,24.89
2023-05-04T11:00:01.058Z,24.89
2023-05-04T11:01:01.203Z,24.90
2023-05-04T11:02:01.135Z,24.90
2023-05-04T11:03:01.324Z,24.90
2023-05-04T11:04:01.197Z,24.91
2023-05-04T11:05:01.275Z,24.92
2023-05-04T11:06:01.282Z,24.92
2023-05-04T11:07:01.337Z,24.92
2023-05-04T11:08:01.377Z,24.93
2023-05-04T11:09:02.114Z,24.93
2023-05-04T11:10:01.393Z,24.93
2023-05-04T11:11:01.455Z,24.93
2023-05-04T11:12:01.464Z,24.93
2023-05-04T11:13:02.733Z,24.93
2023-05-04T11:14:01.545Z,24.94
2023-05-04T11:15:01.529Z,24.93
2023-05-04T11:16:01.582Z,24.93
2023-05-04T11:17:02.771Z,24.94
2023-05-04T11:18:01.610Z,24.94
2023-05-04T11:19:01.484Z,24.94
2023-05-04T11:20:01.490Z,24.94
2023-05-04T11:21:01.581Z,24.94
2023-05-04T11:22:01.532Z,24.95
2023-05-04T11:23:02.038Z,24.94
2023-05-04T11:24:01.777Z,24.93
2023-05-04T11:25:01.584Z,24.93
2023-05-04T11:26:01.598Z,24.94
2023-05-04T11:27:01.655Z,24.95
2023-05-04T11:28:01.690Z,24.95
2023-05-04T11:29:01.718Z,24.95
2023-05-04T11:30:01.804Z,24.95
2023-05-04T11:31:02.771Z,24.96
2023-05-04T11:32:01.853Z,24.96
2023-05-04T11:33:01.898Z,24.96
2023-05-04T11:34:01.818Z,24.97
2023-05-04T11:35:01.877Z,24.97
2023-05-04T11:36:01.875Z,24.98
2023-05-04T11:37:01.938Z,24.98
2023-05-04T11:38:01.963Z,24.97
2023-05-04T11:39:01.955Z,24.97
2023-05-04T11:40:02.053Z,24.98
2023-05-04T11:41:02.014Z,24.97
2023-05-04T11:42:02.016Z,24.97
2023-05-04T11:43:02.026Z,24.96
2023-05-04T11:44:02.026Z,24.96
2023-05-04T11:45:02.206Z,24.96
2023-05-04T11:46:02.200Z,24.97
2023-05-04T11:47:02.090Z,24.97
2023-05-04T11:48:02.704Z,24.97
2023-05-04T11:49:02.161Z,24.97
2023-05-04T11:50:02.307Z,24.96
2023-05-04T11:51:02.180Z,24.97
2023-05-04T11:52:02.247Z,24.96
2023-05-04T11:53:02.266Z,24.95
2023-05-04T11:54:03.033Z,24.93
2023-05-04T11:55:02.378Z,24.93
2023-05-04T11:56:02.311Z,24.93
2023-05-04T11:57:02.399Z,24.95
2023-05-04T11:58:02.398Z,24.96
2023-05-04T11:59:02.399Z,24.97
2023-05-04T12:00:02.462Z,24.97
2023-05-04T12:01:02.459Z,24.97
2023-05-04T12:02:02.530Z,24.97
2023-05-04T12:03:02.576Z,24.98
2023-05-04T12:04:02.716Z,24.96
2023-05-04T12:05:02.619Z,24.94
2023-05-04T12:06:02.654Z,24.96
2023-05-04T12:07:03.566Z,24.96
2023-05-04T12:08:02.667Z,24.97
2023-05-04T12:09:02.667Z,24.97
2023-05-04T12:10:02.672Z,24.96
2023-05-04T12:11:02.685Z,24.98
2023-05-04T12:12:02.688Z,24.99
2023-05-04T12:13:02.857Z,25.00
2023-05-04T12:14:02.965Z,25.00
2023-05-04T12:15:03.058Z,25.00
2023-05-04T12:16:02.799Z,25.00
2023-05-04T12:17:03.606Z,25.00
2023-05-04T12:18:03.514Z,24.98
2023-05-04T12:19:02.863Z,24.96
2023-05-04T12:20:02.894Z,24.97
2023-05-04T12:21:04.536Z,24.98
2023-05-04T12:22:02.970Z,25.00
2023-05-04T12:23:02.971Z,25.01
2023-05-04T12:24:02.985Z,25.01
2023-05-04T12:25:02.979Z,25.02
2023-05-04T12:26:02.988Z,25.02
2023-05-04T12:27:02.994Z,25.03
2023-05-04T12:28:03.048Z,25.03
2023-05-04T12:29:03.061Z,25.03
2023-05-04T12:30:03.103Z,25.04
2023-05-04T12:31:03.072Z,25.04
2023-05-04T12:32:03.137Z,25.05
2023-05-04T12:33:03.242Z,25.06
2023-05-04T12:34:03.153Z,25.06
2023-05-04T12:35:03.153Z,25.07
2023-05-04T12:36:03.568Z,25.08
2023-05-04T12:37:03.169Z,25.07
2023-05-04T12:38:03.172Z,25.09
2023-05-04T12:39:03.216Z,25.09
2023-05-04T12:40:04.406Z,25.10
2023-05-04T12:41:03.198Z,25.10
2023-05-04T12:42:03.200Z,25.09
2023-05-04T12:43:03.216Z,25.10
2023-05-04T12:44:03.163Z,25.11
2023-05-04T12:45:03.187Z,25.10
2023-05-04T12:46:03.192Z,25.12
2023-05-04T12:47:03.132Z,25.13
2023-05-04T12:48:03.176Z,25.15
2023-05-04T12:49:03.089Z,25.17
2023-05-04T12:50:03.166Z,25.17
2023-05-04T12:51:03.170Z,25.19
2023-05-04T12:52:03.481Z,25.20
2023-05-04T12:53:03.124Z,25.20
2023-05-04T12:54:03.130Z,25.20
2023-05-04T12:55:03.095Z,25.22